Latest Weather Observations for Kingfish B

IDV60801

Issued at 9:02 am EST Saturday 1 August 2015 (issued every 30 minutes, with the page automatically refreshed every 10 minutes)

About weather observations | Map of weather stations | Latest weather observations for VIC | Other Formats
Station Details ID: 400139 Name: KINGFISH B (PLATFORM) Lat: -38.60 Lon: 148.19 Height: 31.4 m
Data from the previous 72 hours. | See also: Recent months for locations in Victoria
Date/Time
EST
Temp
°C
App
Temp
°C
Dew
Point
Rel
Hum
%
Delta-T
°C
Wind Press
QNH
hPa
Press
MSL
hPa
Rain
since 9 am
mm
Dir
 
Spd
km/h
Gust
km/h
Spd
kts
Gust
kts
01/07:50am 15.3 11.4 8.8 65 3.3 WNW 19 24 10 13 1007.7 - -
01/07:40am 15.2 10.7 8.6 64 3.3 NW 22 30 12 16 1007.7 - -
01/07:30am 14.9 10.0 8.6 66 3.2 NW 24 28 13 15 1007.7 - -
01/07:20am 14.5 9.2 8.6 67 3.0 NW 26 32 14 17 1007.6 - -
01/07:10am 14.3 9.4 8.3 67 3.0 NNW 24 35 13 19 1007.3 - -
01/07:00am 14.1 8.7 8.1 67 3.0 NNW 26 33 14 18 1007.1 - -
01/06:50am 14.0 8.6 7.8 66 3.1 N 26 32 14 17 1007.0 - -
01/06:40am 13.9 8.4 7.7 66 3.1 N 26 32 14 17 1006.8 - -
01/06:30am 13.8 8.7 7.5 66 3.1 N 24 32 13 17 1006.8 - -
01/06:20am 13.8 8.3 7.4 65 3.1 N 26 32 14 17 1006.8 - -
01/06:10am 13.8 7.8 7.1 64 3.3 N 28 33 15 18 1006.8 - -
01/06:00am 13.7 7.3 6.9 63 3.3 N 30 35 16 19 1006.9 - -
01/05:50am 13.8 7.7 6.8 62 3.4 N 28 35 15 19 1007.1 - -
01/05:40am 13.7 7.6 6.7 62 3.4 N 28 35 15 19 1007.1 - -
01/05:30am 13.5 7.0 6.5 62 3.4 N 30 37 16 20 1006.9 - -
01/05:20am 13.4 6.9 6.3 62 3.4 N 30 37 16 20 1006.9 - -
01/05:10am 13.2 6.2 5.8 61 3.5 - 32 39 17 21 1006.8 - -
01/05:00am 13.0 6.3 5.4 60 3.5 N 30 35 16 19 1007.1 - -
01/04:50am 12.8 5.9 4.7 58 3.7 N 30 37 16 20 1007.1 - -
01/04:40am 12.7 5.8 4.5 57 3.7 N 30 35 16 19 1007.2 - -
01/04:30am 12.6 5.7 4.8 59 3.6 N 30 33 16 18 1007.3 - -
01/04:20am 12.6 5.7 4.8 59 3.6 N 30 39 16 21 1007.3 - -
01/04:10am 12.6 6.1 4.7 58 3.6 N 28 35 15 19 1007.6 - -
01/03:50am 12.8 7.7 3.9 54 4.0 NNW 20 28 11 15 1008.3 - -
01/03:40am 12.7 7.7 3.5 53 4.1 NNW 19 28 10 15 1008.5 - -
01/03:30am 12.4 7.9 4.0 56 3.8 NNW 17 24 9 13 1008.7 - -
01/03:20am 12.4 7.5 4.1 57 3.7 N 19 22 10 12 1008.7 - -
01/03:10am 12.6 8.0 3.9 55 3.9 NNW 17 24 9 13 1008.9 - -
01/03:00am 12.6 7.7 4.0 56 3.9 NW 19 22 10 12 1009.2 - -
01/02:50am 12.9 8.3 3.9 54 4.1 NW 17 22 9 12 1009.4 - -
01/02:40am 13.3 8.7 3.8 52 4.3 WNW 17 20 9 11 1009.7 - -
01/02:30am 12.9 9.1 3.9 54 4.1 WNW 13 19 7 10 1009.9 - -
01/02:20am 12.6 8.5 4.4 57 3.7 W 15 19 8 10 1010.2 - -
01/02:10am 12.6 8.2 4.6 58 3.7 W 17 24 9 13 1010.6 - -
01/02:00am 12.6 7.6 4.8 59 3.6 W 20 24 11 13 1010.8 - -
01/01:50am 12.8 7.5 5.0 59 3.6 W 22 28 12 15 1011.1 - -
01/01:40am 13.1 7.9 5.4 59 3.6 W 22 26 12 14 1011.2 - -
01/01:30am 13.4 7.4 5.1 57 3.9 W 26 32 14 17 1011.5 - -
01/01:20am 14.0 9.0 6.6 61 3.6 W 22 28 12 15 1011.6 - -
01/01:10am 14.3 9.1 7.1 62 3.5 WNW 24 30 13 16 1011.6 - -
01/01:00am 14.6 9.8 7.5 62 3.5 WNW 22 30 12 16 1011.6 - -
01/12:50am 14.7 9.5 7.4 61 3.6 WNW 24 30 13 16 1011.7 - -
01/12:40am 14.3 9.5 7.4 63 3.4 NW 22 30 12 16 1011.6 - -
01/12:30am 13.9 8.6 6.8 62 3.4 NW 24 30 13 16 1011.4 - -
01/12:10am 13.8 7.4 6.8 62 3.4 NW 30 33 16 18 1011.2 - -
01/12:00am 13.6 7.5 6.6 62 3.4 NW 28 35 15 19 1011.4 - -
 
Date/Time
EST
Temp
°C
App
Temp
°C
Dew
Point
Rel
Hum
%
Delta-T
°C
Wind Press
QNH
hPa
Press
MSL
hPa
Rain
since 9 am
mm
Dir
 
Spd
km/h
Gust
km/h
Spd
kts
Gust
kts
31/11:50pm 13.5 7.4 6.8 64 3.2 NNW 28 35 15 19 1011.5 - -
31/11:40pm 13.3 7.3 7.0 65 3.1 NNW 28 35 15 19 1011.4 - -
31/11:30pm 13.0 7.3 6.9 66 2.9 N 26 33 14 18 1011.3 - -
31/11:20pm 12.8 7.1 6.8 67 2.9 N 26 33 14 18 1011.5 - -
31/11:00pm 12.8 7.1 6.9 67 2.8 - 26 30 14 16 1011.7 - -
31/10:50pm 12.7 7.0 6.9 68 2.8 N 26 32 14 17 1011.8 - -
31/10:40pm 12.7 6.7 7.0 68 2.7 N 28 32 15 17 1011.8 - -
31/10:30pm 13.0 7.0 7.1 67 2.9 N 28 32 15 17 1012.3 - -
31/10:20pm 12.9 6.5 6.9 67 2.9 N 30 33 16 18 1012.5 - -
31/10:10pm 13.0 6.6 6.8 66 3.0 N 30 33 16 18 1012.9 - -
31/10:00pm 13.1 6.3 6.9 66 3.0 NNE 32 35 17 19 1012.8 - -
31/09:50pm 13.1 6.3 6.9 66 3.0 NNE 32 37 17 20 1012.9 - -
31/09:40pm 13.1 6.7 7.1 67 2.9 NNE 30 33 16 18 1013.0 - -
31/09:30pm 12.9 6.5 7.1 68 2.8 NNE 30 35 16 19 1013.1 - -
31/09:20pm 12.8 6.8 7.1 68 2.8 NNE 28 35 15 19 1013.5 - -
31/09:10pm 12.6 6.2 6.9 68 2.7 NNE 30 35 16 19 1013.7 - -
31/09:00pm 12.6 6.2 6.8 68 2.8 NNE 30 37 16 20 1014.2 - -
31/08:50pm 12.5 6.0 6.7 68 2.8 NNE 30 35 16 19 1014.7 - -
31/08:40pm 12.4 5.9 6.4 67 2.9 NNE 30 37 16 20 1014.8 - -
31/08:30pm 12.3 6.1 6.2 66 2.9 NNE 28 32 15 17 1015.0 - -
31/08:20pm 12.2 6.0 6.0 66 2.9 NNE 28 32 15 17 1015.1 - -
31/08:10pm 12.1 6.2 5.8 65 2.9 NNE 26 33 14 18 1015.1 - -
31/08:00pm 12.0 6.4 5.6 65 3.0 NNE 24 32 13 17 1015.3 - -
31/07:50pm 12.0 6.8 5.4 64 3.1 NNE 22 30 12 16 1015.6 - -
31/07:40pm 11.9 6.6 5.2 63 3.1 NNE 22 28 12 15 1015.7 - -
31/07:30pm 11.8 7.0 4.9 62 3.2 NNE 19 26 10 14 1015.8 - -
31/07:20pm 11.8 7.0 4.6 61 3.3 NNE 19 26 10 14 1016.1 - -
31/07:10pm 11.7 7.6 4.3 60 3.3 NNE 15 20 8 11 1016.2 - -
31/07:00pm 11.7 7.6 4.2 60 3.4 NNE 15 20 8 11 1016.4 - -
31/06:50pm 11.6 8.2 4.0 59 3.4 NNE 11 17 6 9 1016.5 - -
31/06:40pm 11.6 7.8 3.9 59 3.4 NNE 13 17 7 9 1016.4 - -
31/06:30pm 11.6 8.5 3.7 58 3.5 NNE 9 15 5 8 1016.5 - -
31/06:20pm 11.5 8.8 3.5 58 3.5 NNE 7 11 4 6 1016.4 - -
31/06:10pm 11.5 8.7 3.1 56 3.7 NNE 7 9 4 5 1016.3 - -
31/06:00pm 11.4 8.6 3.3 57 3.6 NNE 7 11 4 6 1016.4 - -
31/05:50pm 11.4 8.8 3.0 56 3.7 NNE 6 11 3 6 1016.2 - -
31/05:40pm 11.3 8.5 3.2 57 3.6 NE 7 11 4 6 1016.0 - -
31/05:30pm 11.2 8.5 3.5 59 3.4 NE 7 11 4 6 1016.1 - -
31/05:20pm 11.1 8.6 3.5 59 3.3 NE 6 9 3 5 1016.2 - -
31/05:10pm 11.1 9.0 3.8 61 3.2 NE 4 11 2 6 1016.1 - -
31/05:00pm 11.1 9.3 3.6 60 3.3 NE 2 7 1 4 1016.2 - -
31/04:50pm 11.2 9.1 3.8 60 3.3 NNE 4 6 2 3 1016.3 - -
31/04:40pm 11.3 9.6 3.9 60 3.3 NNE 2 6 1 3 1016.3 - -
31/04:30pm 11.3 9.5 3.7 59 3.4 NNE 2 6 1 3 1016.4 - -
31/04:20pm 11.4 10.0 3.4 58 3.5 CALM 0 6 0 3 1016.5 - -
31/04:10pm 11.8 10.3 3.0 55 3.9 CALM 0 6 0 3 1016.5 - -
31/04:00pm 12.6 11.2 3.3 53 4.1 CALM 0 4 0 2 1016.5 - -
31/03:50pm 12.9 11.6 4.0 54 4.0 CALM 0 2 0 1 1016.6 - -
31/03:40pm 12.7 11.3 3.7 54 4.0 CALM 0 2 0 1 1016.6 - -
31/03:30pm 12.5 11.1 3.8 55 3.9 CALM 0 2 0 1 1016.7 - -
31/03:20pm 12.3 10.8 3.2 54 4.0 CALM 0 2 0 1 1016.8 - -
31/03:10pm 12.6 11.3 4.2 56 3.8 CALM 0 2 0 1 1017.0 - -
31/03:00pm 12.0 10.3 4.1 58 3.6 W 2 7 1 4 1017.2 - -
31/02:50pm 11.9 9.4 3.8 57 3.6 W 6 9 3 5 1017.5 - -
31/02:40pm 11.8 9.2 4.0 59 3.5 W 7 9 4 5 1017.4 - -
31/02:30pm 11.8 9.4 4.3 60 3.4 W 6 9 3 5 1017.3 - -
31/02:20pm 11.7 9.7 4.4 61 3.3 W 4 7 2 4 1017.1 - -
31/02:10pm 11.5 9.1 4.4 61 3.2 W 6 9 3 5 1017.2 - -
31/01:50pm 11.7 9.3 4.4 61 3.3 WSW 6 11 3 6 1017.4 - -
31/01:40pm 11.9 8.9 4.3 59 3.4 W 9 13 5 7 1017.6 - -
31/01:30pm 12.0 8.7 4.3 59 3.5 WSW 11 15 6 8 1017.7 - -
31/01:20pm 12.2 8.5 4.5 59 3.5 WSW 13 19 7 10 1017.8 - -
31/01:10pm 12.1 8.0 4.4 59 3.5 W 15 20 8 11 1017.9 - -
31/01:00pm 12.0 8.3 4.5 60 3.4 W 13 19 7 10 1017.9 - -
31/12:50pm 12.0 7.6 4.6 60 3.4 W 17 20 9 11 1018.0 - -
31/12:40pm 12.0 8.0 4.8 61 3.3 W 15 22 8 12 1018.1 - -
31/12:30pm 12.0 8.0 4.8 61 3.3 W 15 20 8 11 1018.2 - -
31/12:20pm 12.1 8.5 5.2 62 3.2 W 13 19 7 10 1018.2 - -
31/12:10pm 12.0 8.0 4.8 61 3.3 W 15 20 8 11 1018.3 - -
31/12:00pm 12.1 8.0 4.6 60 3.4 W 15 20 8 11 1018.5 - -
31/11:50am 12.2 8.5 4.7 60 3.4 W 13 19 7 10 1018.6 - -
31/11:40am 12.2 8.1 4.6 59 3.5 W 15 19 8 10 1018.6 - -
31/11:30am 12.3 8.3 4.7 60 3.5 W 15 19 8 10 1018.9 - -
31/11:20am 12.2 7.4 4.7 60 3.4 W 19 22 10 12 1019.1 - -
31/11:10am 12.4 7.7 5.0 60 3.4 W 19 22 10 12 1019.3 - -
31/11:00am 12.4 7.7 5.0 60 3.4 W 19 26 10 14 1019.6 - -
31/10:50am 12.5 6.8 4.9 60 3.5 WSW 24 30 13 16 1019.7 - -
31/10:40am 12.8 7.5 5.1 59 3.6 WSW 22 30 12 16 1019.8 - -
31/10:30am 12.6 7.0 5.2 60 3.4 W 24 28 13 15 1019.9 - -
31/10:20am 12.6 7.4 5.3 61 3.4 W 22 28 12 15 1020.0 - -
31/10:10am 12.9 7.5 4.6 57 3.8 W 22 28 12 15 1019.9 - -
31/10:00am 12.8 8.0 4.6 57 3.8 W 19 24 10 13 1019.9 - -
31/09:50am 12.7 8.3 4.7 58 3.7 W 17 20 9 11 1020.0 - -
31/09:40am 12.7 8.0 5.2 60 3.5 W 19 24 10 13 1019.9 - -
31/09:30am 12.8 8.2 5.5 61 3.4 W 19 24 10 13 1020.0 - -
31/09:20am 12.5 7.7 5.5 62 3.3 W 20 24 11 13 1019.9 - -
31/09:10am 12.5 7.3 5.7 63 3.2 W 22 28 12 15 1019.9 - -
31/09:00am 12.6 7.5 5.9 63 3.2 W 22 26 12 14 1019.7 - -
31/08:50am 12.4 7.2 5.5 63 3.2 W 22 26 12 14 1019.7 - -
31/08:40am 12.3 7.1 5.7 64 3.1 WSW 22 30 12 16 1019.6 - -
31/08:30am 12.3 6.8 5.8 64 3.0 W 24 30 13 16 1019.6 - -
31/08:20am 12.3 7.2 5.9 65 3.0 WSW 22 32 12 17 1019.5 - -
31/08:10am 12.3 7.2 5.9 65 3.0 WSW 22 28 12 15 1019.4 - -
31/08:00am 11.9 7.1 5.8 66 2.8 WSW 20 26 11 14 1019.3 - -
31/07:50am 11.3 6.5 5.6 68 2.6 WSW 20 26 11 14 1019.1 - -
31/07:40am 11.0 5.9 5.8 70 2.4 WSW 22 30 12 16 1019.0 - -
31/07:30am 11.4 5.2 6.2 70 2.4 WSW 28 39 15 21 1018.8 - -
31/07:20am 11.4 6.8 6.3 71 2.4 WSW 20 28 11 15 1018.8 - -
31/07:10am 11.3 6.7 6.4 72 2.3 WSW 20 28 11 15 1018.7 - -
31/07:00am 11.2 5.8 6.3 72 2.3 WSW 24 33 13 18 1018.7 - -
31/06:50am 11.2 5.4 6.3 72 2.3 WSW 26 33 14 18 1018.4 - -
31/06:40am 11.1 6.0 6.2 72 2.3 WSW 22 30 12 16 1018.3 - -
31/06:30am 10.7 6.1 5.7 71 2.3 SW 19 24 10 13 1018.3 - -
31/06:20am 11.0 6.3 5.9 71 2.4 SW 20 28 11 15 1018.2 - -
31/06:10am 11.1 6.0 6.0 71 2.4 WSW 22 30 12 16 1018.0 - -
31/06:00am 10.9 5.7 5.7 70 2.4 WSW 22 28 12 15 1017.8 - -
31/05:50am 10.5 5.6 5.2 70 2.4 WSW 20 28 11 15 1017.7 - -
31/05:40am 10.5 4.0 4.9 68 2.5 SW 28 37 15 20 1017.7 - -
31/05:30am 11.2 4.5 5.6 68 2.6 WSW 30 43 16 23 1017.5 - -
31/05:20am 11.0 5.0 5.3 68 2.6 WSW 26 32 14 17 1017.3 - -
31/05:10am 11.0 4.6 5.2 67 2.7 WSW 28 35 15 19 1017.0 - -
31/05:00am 10.8 3.9 4.8 66 2.7 WSW 30 35 16 19 1016.7 - -
31/04:50am 10.5 3.3 5.0 69 2.5 WSW 32 41 17 22 1016.5 - -
31/04:40am 10.4 2.6 5.0 69 2.4 SW 35 43 19 23 1016.4 - -
31/04:30am 10.8 2.4 5.5 70 2.4 SW 39 50 21 27 1016.4 - -
31/04:20am 11.0 3.4 5.6 69 2.5 WSW 35 44 19 24 1016.3 - -
31/04:10am 11.0 3.7 5.6 69 2.5 WSW 33 37 18 20 1016.2 - -
31/04:00am 10.9 3.6 5.4 69 2.5 WSW 33 39 18 21 1016.1 - -
31/03:50am 10.8 3.5 5.3 69 2.5 WSW 33 41 18 22 1015.9 - -
31/03:40am 11.0 2.2 5.4 68 2.6 WSW 41 50 22 27 1015.7 - -
31/03:30am 11.3 2.0 5.7 68 2.6 WSW 44 52 24 28 1015.4 - -
31/03:20am 11.3 2.2 5.9 69 2.5 WSW 43 52 23 28 1015.4 - -
31/03:10am 11.3 3.0 5.9 69 2.5 WSW 39 44 21 24 1015.4 - -
31/03:00am 11.4 3.5 6.0 69 2.5 WSW 37 44 20 24 1015.3 - -
31/02:50am 11.2 2.8 5.8 69 2.5 WSW 39 44 21 24 1015.2 - -
31/02:40am 11.2 3.2 5.7 69 2.5 WSW 37 46 20 25 1015.2 - -
31/02:30am 11.4 2.7 5.8 68 2.6 WSW 41 46 22 25 1015.1 - -
31/02:20am 11.5 3.5 5.8 68 2.7 WSW 37 46 20 25 1015.1 - -
31/02:10am 11.5 2.7 5.7 67 2.7 WSW 41 46 22 25 1015.0 - -
31/02:00am 11.5 3.1 5.8 68 2.7 WSW 39 48 21 26 1014.9 - -
31/01:50am 11.6 2.9 5.8 67 2.7 WSW 41 50 22 27 1014.8 - -
31/01:40am 11.7 2.6 5.7 66 2.8 WSW 43 52 23 28 1014.7 - -
31/01:30am 11.6 2.2 5.4 65 2.9 WSW 44 54 24 29 1014.6 - -
31/01:20am 11.5 1.2 4.9 64 3.0 WSW 48 57 26 31 1014.3 - -
31/01:10am 11.6 1.5 5.7 67 2.7 WSW 48 59 26 32 1014.2 - -
31/01:00am 11.8 2.1 5.9 67 2.8 WSW 46 54 25 29 1014.4 - -
31/12:50am 11.7 2.0 5.8 67 2.8 WSW 46 54 25 29 1014.4 - -
31/12:40am 11.7 2.4 5.9 67 2.7 WSW 44 54 24 29 1014.3 - -
31/12:30am 11.6 2.3 5.8 67 2.7 WSW 44 56 24 30 1014.2 - -
31/12:20am 11.5 1.4 5.5 66 2.8 WSW 48 59 26 32 1013.9 - -
31/12:10am 11.5 0.2 5.2 65 2.9 WSW 54 63 29 34 1013.6 - -
31/12:00am 11.7 -0.5 5.5 66 2.9 WSW 59 78 32 42 1013.3 - -
 
Date/Time
EST
Temp
°C
App
Temp
°C
Dew
Point
Rel
Hum
%
Delta-T
°C
Wind Press
QNH
hPa
Press
MSL
hPa
Rain
since 9 am
mm
Dir
 
Spd
km/h
Gust
km/h
Spd
kts
Gust
kts
30/11:50pm 12.1 0.9 5.7 65 3.0 WSW 54 69 29 37 1013.4 - -
30/11:40pm 12.1 0.3 5.6 64 3.0 WSW 57 70 31 38 1013.2 - -
30/11:30pm 12.2 1.0 5.8 65 3.0 WSW 54 69 29 37 1013.2 - -
30/11:20pm 12.3 2.3 6.1 66 2.9 WSW 48 61 26 33 1013.3 - -
30/11:10pm 12.3 1.1 6.1 66 2.9 WSW 54 72 29 39 1013.2 - -
30/10:50pm 13.1 0.3 6.2 63 3.3 WSW 63 85 34 46 1012.9 - -
30/10:40pm 13.7 1.6 6.0 59 3.7 WSW 59 83 32 45 1012.8 - -
30/10:30pm 13.8 4.7 5.8 58 3.8 W 43 56 23 30 1013.0 - -
30/10:20pm 13.9 4.6 5.7 57 3.9 W 44 54 24 29 1012.9 - -
30/10:10pm 14.0 4.3 5.6 57 4.0 W 46 57 25 31 1012.8 - -
30/10:00pm 14.0 4.8 5.5 56 4.0 W 43 52 23 28 1012.7 - -
30/09:50pm 14.1 4.9 5.3 55 4.1 W 43 54 23 29 1012.7 - -
30/09:40pm 14.2 5.4 5.5 56 4.1 W 41 52 22 28 1012.7 - -
30/09:30pm 14.3 5.4 5.0 53 4.4 W 41 50 22 27 1012.6 - -
30/09:20pm 14.5 5.5 4.7 52 4.6 W 41 48 22 26 1012.6 - -
30/09:10pm 14.6 5.0 4.4 50 4.7 W 44 56 24 30 1012.4 - -
30/09:00pm 14.6 4.2 4.0 49 4.9 W 48 61 26 33 1012.2 - -
30/08:50pm 14.6 5.0 4.2 49 4.8 W 44 54 24 29 1012.0 - -
30/08:40pm 14.6 5.0 4.3 50 4.8 W 44 57 24 31 1011.8 - -
30/08:30pm 14.7 4.7 4.5 50 4.7 W 46 57 25 31 1011.7 - -
30/08:20pm 14.7 4.2 3.9 48 5.0 W 48 65 26 35 1011.5 - -
30/08:10pm 15.0 3.4 3.9 47 5.1 W 54 67 29 36 1011.3 - -
30/08:00pm 15.0 6.6 5.6 53 4.5 W 39 56 21 30 1011.2 - -
30/07:50pm 15.2 7.7 6.1 54 4.4 W 35 48 19 26 1011.1 - -
30/07:40pm 15.3 7.9 6.7 56 4.2 WNW 35 46 19 25 1011.1 - -
30/07:30pm 15.5 8.0 6.3 54 4.5 WNW 35 43 19 23 1011.0 - -
30/07:20pm 15.6 8.1 6.3 54 4.5 WNW 35 46 19 25 1010.9 - -
30/07:10pm 15.8 8.2 6.0 52 4.7 WNW 35 44 19 24 1010.9 - -
30/07:00pm 15.7 7.8 6.0 52 4.7 WNW 37 44 20 24 1010.8 - -
30/06:50pm 15.4 8.3 6.3 54 4.4 WNW 33 43 18 23 1010.7 - -
30/06:40pm 14.9 8.3 6.1 55 4.2 NW 30 39 16 21 1010.6 - -
30/06:30pm 14.5 8.4 6.4 58 3.9 NW 28 35 15 19 1010.6 - -
30/06:20pm 14.3 9.0 6.8 60 3.6 NW 24 28 13 15 1010.8 - -
30/06:10pm 14.2 8.9 6.6 60 3.7 NNW 24 30 13 16 1010.7 - -
30/06:00pm 14.0 9.1 6.8 62 3.5 NNW 22 32 12 17 1010.6 - -
30/05:50pm 13.8 8.8 6.6 62 3.5 N 22 28 12 15 1010.7 - -
30/05:40pm 13.8 8.4 6.4 61 3.6 N 24 28 13 15 1010.7 - -
30/05:30pm 13.7 8.0 6.5 62 3.5 N 26 35 14 19 1010.8 - -
30/05:20pm 13.7 8.4 6.9 63 3.3 N 24 30 13 16 1011.0 - -
30/05:10pm 13.8 9.3 6.9 63 3.3 N 20 26 11 14 1011.4 - -
30/05:00pm 14.0 9.5 6.9 62 3.5 N 20 28 11 15 1011.6 - -
30/04:50pm 14.1 9.2 6.7 61 3.6 NNW 22 30 12 16 1011.6 - -
30/04:40pm 14.1 8.8 6.6 60 3.6 NNW 24 33 13 18 1011.6 - -
30/04:30pm 14.1 8.4 6.5 60 3.7 NNW 26 33 14 18 1011.7 - -
30/04:20pm 13.9 8.5 6.4 60 3.6 NNW 24 33 13 18 1011.6 - -
30/04:10pm 13.8 8.0 6.3 60 3.6 N 26 32 14 17 1011.6 - -
30/04:00pm 13.9 8.5 6.3 60 3.6 N 24 30 13 16 1011.7 - -
30/03:50pm 14.1 9.4 6.2 59 3.8 N 20 28 11 15 1012.0 - -
30/03:40pm 14.3 8.5 6.3 58 3.8 NW 26 33 14 18 1012.3 - -
30/03:30pm 14.3 8.7 7.2 62 3.5 NW 26 33 14 18 1012.5 - -
30/03:20pm 14.2 9.4 7.5 64 3.3 NW 22 28 12 15 1012.5 - -
30/03:10pm 13.8 10.4 7.7 66 3.0 NW 15 22 8 12 1012.5 - -
30/03:00pm 13.8 10.3 7.3 65 3.2 N 15 19 8 10 1012.4 - -
30/02:50pm 13.7 10.1 6.9 63 3.3 N 15 22 8 12 1012.5 - -
30/02:40pm 13.6 9.1 6.3 61 3.5 N 19 24 10 13 1012.3 - -
30/02:30pm 13.5 10.2 6.5 62 3.4 N 13 20 7 11 1012.7 - -
30/02:20pm 13.3 9.6 6.2 62 3.4 - 15 22 8 12 1012.6 - -
30/02:10pm 13.2 9.4 6.0 61 3.4 N 15 20 8 11 1013.0 - -
30/02:00pm 13.3 9.2 6.3 62 3.3 N 17 20 9 11 1013.1 - -
30/01:50pm 13.5 9.4 6.0 60 3.6 - 17 20 9 11 1013.2 - -
30/01:40pm 13.9 10.1 5.9 58 3.8 N 15 20 8 11 1013.5 - -
30/01:30pm 14.0 10.2 5.8 57 3.9 NNW 15 24 8 13 1013.7 - -
30/01:20pm 13.6 8.2 4.6 54 4.2 N 22 30 12 16 1013.4 - -
30/01:10pm 13.8 8.5 4.8 54 4.2 N 22 28 12 15 1013.7 - -
30/01:00pm 13.7 8.7 4.5 54 4.2 NNW 20 26 11 14 1014.1 - -
30/12:50pm 13.7 8.3 4.7 54 4.2 NNW 22 28 12 15 1014.2 - -
30/12:40pm 13.7 8.3 4.4 53 4.3 NW 22 28 12 15 1014.5 - -
30/12:30pm 13.5 8.4 4.1 53 4.3 NNW 20 28 11 15 1014.6 - -
30/12:20pm 13.5 7.6 4.1 53 4.3 NNW 24 30 13 16 1014.9 - -
30/12:10pm 13.6 7.7 3.9 52 4.4 NW 24 28 13 15 1015.3 - -
30/12:00pm 13.4 8.2 3.5 51 4.5 NW 20 24 11 13 1015.7 - -
30/11:50am 13.4 7.4 3.2 50 4.6 NW 24 28 13 15 1016.0 - -
30/11:40am 13.4 7.0 3.2 50 4.6 NW 26 32 14 17 1016.3 - -
30/11:30am 13.4 6.9 2.9 49 4.7 NW 26 32 14 17 1016.5 - -
30/11:20am 13.4 7.3 3.0 49 4.6 NW 24 30 13 16 1016.8 - -
30/11:10am 13.5 7.4 3.0 49 4.7 NW 24 26 13 14 1017.1 - -
30/11:00am 13.6 8.4 3.4 50 4.6 NW 20 26 11 14 1017.4 - -
30/10:50am 13.5 8.4 4.0 52 4.3 NW 20 24 11 13 1017.7 - -
30/10:40am 13.6 8.4 3.4 50 4.6 NW 20 26 11 14 1018.1 - -
30/10:30am 13.9 8.7 3.5 49 4.7 NW 20 26 11 14 1018.3 - -
30/10:20am 13.7 8.5 3.6 50 4.6 WNW 20 24 11 13 1018.6 - -
30/10:10am 13.4 9.0 4.5 55 4.1 NW 17 24 9 13 1018.9 - -
30/10:00am 13.4 9.0 4.6 55 4.1 NW 17 22 9 12 1019.2 - -
30/09:50am 13.5 9.1 4.6 55 4.1 NW 17 24 9 13 1019.4 - -
30/09:40am 13.6 9.6 4.7 55 4.1 NW 15 19 8 10 1019.6 - -
30/09:30am 13.8 9.4 4.6 54 4.3 NW 17 20 9 11 1019.7 - -
30/09:20am 13.8 9.7 4.2 52 4.4 NW 15 19 8 10 1019.8 - -
30/09:10am 13.9 10.2 4.2 52 4.4 NW 13 17 7 9 1019.9 - -
30/08:50am 13.5 10.2 4.5 54 4.1 NNW 11 17 6 9 1019.9 - -
30/08:40am 13.5 10.2 4.6 55 4.1 NNW 11 17 6 9 1020.0 - -
30/08:30am 13.5 9.8 4.6 55 4.1 NNW 13 17 7 9 1020.1 - -
30/08:20am 13.6 9.5 4.3 53 4.3 NW 15 19 8 10 1020.3 - -
30/08:10am 13.6 9.1 4.2 53 4.3 NW 17 20 9 11 1020.5 - -
30/08:00am 13.5 8.9 3.8 52 4.4 NW 17 20 9 11 1020.6 - -
30/07:50am 13.6 9.5 4.2 53 4.3 NW 15 20 8 11 1020.6 - -
30/07:40am 13.4 9.2 3.7 52 4.4 NW 15 19 8 10 1020.7 - -
30/07:30am 13.3 9.0 3.3 50 4.5 NW 15 19 8 10 1020.8 - -
30/07:20am 13.2 9.2 3.0 50 4.5 NW 13 19 7 10 1020.9 - -
30/07:10am 13.2 10.0 3.2 50 4.5 NW 9 13 5 7 1021.0 - -
30/07:00am 13.3 10.1 3.3 50 4.5 NW 9 13 5 7 1021.2 - -
30/06:50am 13.4 10.6 3.2 50 4.6 NW 7 11 4 6 1021.3 - -
30/06:40am 13.2 10.4 3.3 51 4.4 WNW 7 11 4 6 1021.4 - -
30/06:30am 13.1 10.3 3.2 51 4.4 WNW 7 9 4 5 1021.4 - -
30/06:20am 13.0 9.8 3.3 51 4.3 WNW 9 13 5 7 1021.3 - -
30/06:10am 13.2 9.7 3.5 52 4.4 WNW 11 15 6 8 1021.3 - -
30/06:00am 13.1 9.6 3.5 52 4.3 WNW 11 15 6 8 1021.4 - -
30/05:50am 13.0 9.5 3.4 52 4.3 WNW 11 17 6 9 1021.6 - -
30/05:40am 12.9 10.3 4.1 55 4.0 WNW 7 11 4 6 1021.7 - -
30/05:30am 12.6 10.0 4.2 56 3.8 WNW 7 9 4 5 1021.8 - -
30/05:20am 12.3 9.9 4.1 57 3.7 WNW 6 9 3 5 1021.9 - -
30/05:10am 12.2 9.7 3.6 55 3.8 W 6 9 3 5 1021.8 - -
30/05:00am 12.1 9.4 3.5 55 3.8 W 7 11 4 6 1021.9 - -
30/04:50am 12.2 9.0 3.3 54 3.9 W 9 15 5 8 1022.1 - -
30/04:40am 12.3 8.4 3.5 55 3.9 W 13 15 7 8 1022.2 - -
30/04:30am 12.3 9.3 4.2 57 3.7 W 9 13 5 7 1022.4 - -
30/04:20am 12.3 9.4 4.5 59 3.6 W 9 13 5 7 1022.3 - -
30/04:10am 12.4 9.5 4.4 58 3.6 W 9 11 5 6 1022.4 - -
30/04:00am 12.5 9.5 3.9 56 3.9 W 9 11 5 6 1022.4 - -
30/03:50am 12.5 10.0 4.8 59 3.5 W 7 11 4 6 1022.3 - -
30/03:40am 12.3 9.5 5.3 62 3.2 W 9 11 5 6 1022.5 - -
30/03:30am 12.3 10.0 5.8 64 3.0 W 7 11 4 6 1022.6 - -
30/03:20am 12.2 9.9 5.8 65 3.0 W 7 9 4 5 1022.7 - -
30/03:10am 12.5 10.3 6.1 65 3.0 W 7 11 4 6 1022.9 - -
30/01:50am 13.0 10.6 7.2 68 2.8 NW 9 11 5 6 1024.1 - -
30/01:40am 13.1 10.7 7.2 67 2.9 NW 9 13 5 7 1024.2 - -
30/01:30am 13.1 10.7 7.1 67 2.9 NW 9 13 5 7 1024.4 - -
30/01:20am 13.2 10.8 7.2 67 2.9 NW 9 13 5 7 1024.6 - -
30/01:10am 13.4 11.1 7.4 67 2.9 NW 9 13 5 7 1024.8 - -
30/01:00am 13.5 11.2 7.5 67 2.9 WNW 9 13 5 7 1025.0 - -
30/12:50am 13.2 10.9 7.4 68 2.8 NW 9 11 5 6 1025.1 - -
30/12:40am 12.9 10.5 7.2 68 2.8 NW 9 13 5 7 1025.1 - -
30/12:30am 12.8 10.4 6.9 67 2.8 NW 9 13 5 7 1025.1 - -
30/12:20am 12.7 10.3 6.8 67 2.8 NNW 9 13 5 7 1025.2 - -
30/12:10am 12.7 10.3 6.8 67 2.8 NNW 9 13 5 7 1025.3 - -
30/12:00am 12.5 10.0 6.5 67 2.9 NNW 9 15 5 8 1025.3 - -
 
Date/Time
EST
Temp
°C
App
Temp
°C
Dew
Point
Rel
Hum
%
Delta-T
°C
Wind Press
QNH
hPa
Press
MSL
hPa
Rain
since 9 am
mm
Dir
 
Spd
km/h
Gust
km/h
Spd
kts
Gust
kts
29/11:50pm 12.3 10.1 6.2 66 2.9 N 7 13 4 7 1025.3 - -
29/11:40pm 12.3 10.1 6.1 66 2.9 N 7 13 4 7 1025.4 - -
29/11:30pm 12.3 10.2 5.9 65 3.0 N 6 13 3 7 1025.5 - -
29/11:20pm 12.3 10.2 5.7 64 3.1 N 6 11 3 6 1025.7 - -
29/11:10pm 12.5 10.4 5.7 63 3.2 N 6 11 3 6 1025.9 - -
29/11:00pm 12.8 10.1 5.8 62 3.3 N 9 15 5 8 1026.4 - -
29/10:50pm 13.0 10.4 5.9 62 3.4 N 9 13 5 7 1026.6 - -
29/10:40pm 13.1 10.8 5.9 61 3.4 NNW 7 11 4 6 1026.7 - -
29/10:30pm 12.9 10.6 5.9 62 3.3 NNW 7 11 4 6 1026.8 - -
29/10:20pm 12.6 10.3 5.5 62 3.3 N 7 13 4 7 1026.8 - -
29/10:10pm 12.6 10.2 5.1 60 3.5 N 7 13 4 7 1026.8 - -
29/10:00pm 12.6 9.7 4.8 59 3.6 N 9 15 5 8 1026.8 - -
29/09:50pm 12.6 9.7 4.9 59 3.5 N 9 13 5 7 1027.0 - -
29/09:40pm 12.4 9.9 5.0 60 3.4 N 7 13 4 7 1027.0 - -
29/09:30pm 12.5 10.1 5.1 60 3.4 N 7 13 4 7 1027.1 - -
29/09:20pm 12.6 10.0 4.2 56 3.8 N 7 13 4 7 1027.2 - -
29/09:10pm 12.6 9.9 3.8 55 4.0 N 7 13 4 7 1027.2 - -
29/09:00pm 12.7 10.2 4.0 55 3.9 N 6 11 3 6 1027.3 - -
29/08:50pm 12.7 10.3 4.1 56 3.9 N 6 9 3 5 1027.7 - -
29/08:40pm 12.6 10.5 4.0 56 3.9 N 4 9 2 5 1027.6 - -
29/08:30pm 12.6 10.9 3.9 55 3.9 N 2 7 1 4 1027.6 - -
29/08:10pm 12.5 10.4 4.0 56 3.8 NNE 4 7 2 4 1027.8 - -
29/08:00pm 12.6 10.6 4.3 57 3.8 NNE 4 7 2 4 1027.8 - -
29/07:50pm 12.6 10.6 4.4 57 3.7 N 4 7 2 4 1027.8 - -
29/07:40pm 12.6 10.6 4.6 58 3.7 NNE 4 7 2 4 1027.9 - -
29/07:30pm 12.7 10.8 4.9 59 3.6 NNE 4 7 2 4 1027.8 - -
29/07:20pm 12.7 10.8 4.9 59 3.6 NNE 4 7 2 4 1027.9 - -
29/07:10pm 12.6 10.7 4.9 59 3.5 NNE 4 7 2 4 1027.9 - -
29/07:00pm 12.5 10.6 4.7 59 3.6 NNE 4 7 2 4 1028.1 - -
29/06:50pm 12.4 10.5 4.7 59 3.5 NNE 4 6 2 3 1028.1 - -
29/06:40pm 12.5 11.0 4.9 60 3.5 NNE 2 6 1 3 1028.2 - -
29/06:10pm 12.4 10.8 4.6 59 3.6 NNE 2 6 1 3 1028.2 - -
29/06:00pm 12.6 11.1 4.9 59 3.5 NNE 2 6 1 3 1028.3 - -
29/05:50pm 12.9 11.8 5.1 59 3.6 CALM 0 6 0 3 1028.3 - -
29/05:40pm 13.0 11.9 5.1 58 3.7 CALM 0 0 0 0 1028.3 - -
29/05:30pm 13.4 12.3 5.1 57 3.9 CALM 0 2 0 1 1028.3 - -
29/05:20pm 13.7 12.7 5.6 58 3.8 CALM 0 2 0 1 1028.3 - -
29/04:40pm 12.2 11.0 4.6 59 3.5 CALM 0 4 0 2 1028.4 - -
29/04:30pm 12.1 10.5 4.4 59 3.5 WSW 2 6 1 3 1028.4 - -
29/04:20pm 12.2 10.6 4.6 59 3.5 WSW 2 4 1 2 1028.3 - -
29/04:10pm 12.2 10.7 4.8 60 3.4 WSW 2 4 1 2 1028.2 - -
29/04:00pm 12.2 10.7 4.9 61 3.4 WSW 2 4 1 2 1028.3 - -
29/03:50pm 12.2 10.7 5.1 62 3.3 WSW 2 6 1 3 1028.3 - -
29/03:40pm 12.3 10.9 5.4 63 3.2 WSW 2 6 1 3 1028.4 - -
29/03:30pm 12.4 10.6 5.3 62 3.3 WSW 4 7 2 4 1028.4 - -
29/03:20pm 12.5 10.3 5.1 60 3.4 WSW 6 9 3 5 1028.6 - -
29/03:10pm 12.6 10.3 5.0 60 3.5 WSW 6 9 3 5 1028.7 - -
29/03:00pm 12.6 10.3 5.0 60 3.5 WSW 6 11 3 6 1028.7 - -
29/02:50pm 12.7 10.4 5.0 59 3.6 WSW 6 9 3 5 1028.6 - -
29/02:40pm 12.9 10.6 5.0 58 3.7 WSW 6 9 3 5 1028.7 - -
29/02:30pm 13.1 10.8 5.5 60 3.6 WSW 7 9 4 5 1028.8 - -
29/02:20pm 13.0 10.8 5.4 60 3.5 W 6 7 3 4 1028.8 - -
29/02:10pm 13.1 11.0 5.6 60 3.5 W 6 9 3 5 1028.8 - -
29/02:00pm 12.9 10.8 5.6 61 3.4 W 6 9 3 5 1028.8 - -
29/01:50pm 12.9 10.6 5.7 61 3.4 W 7 11 4 6 1028.9 - -
29/01:40pm 13.1 10.4 5.6 60 3.5 W 9 11 5 6 1029.0 - -
29/01:30pm 13.0 10.2 5.3 59 3.6 W 9 11 5 6 1029.1 - -
29/01:20pm 13.1 10.0 5.4 59 3.6 W 11 15 6 8 1029.2 - -
29/01:10pm 13.1 10.0 5.4 59 3.6 W 11 15 6 8 1029.3 - -
29/01:00pm 13.4 10.3 5.6 59 3.7 W 11 19 6 10 1029.4 - -
29/12:50pm 13.5 10.5 6.1 61 3.5 W 11 13 6 7 1029.6 - -
29/12:40pm 13.5 10.6 6.3 61 3.4 W 11 13 6 7 1029.7 - -
29/12:30pm 13.4 10.2 6.7 64 3.2 W 13 20 7 11 1029.8 - -
29/12:20pm 13.5 10.2 6.5 62 3.4 W 13 17 7 9 1029.9 - -
29/12:10pm 13.7 10.4 6.5 62 3.5 W 13 17 7 9 1030.0 - -
29/12:00pm 13.7 10.5 6.7 62 3.4 W 13 17 7 9 1030.2 - -
29/11:50am 13.6 10.7 6.6 62 3.4 W 11 19 6 10 1030.3 - -
29/11:40am 13.8 10.6 6.9 63 3.3 W 13 17 7 9 1030.5 - -
29/11:30am 13.7 10.5 6.9 63 3.3 W 13 19 7 10 1030.7 - -
29/11:20am 13.6 10.4 6.9 64 3.2 W 13 17 7 9 1030.7 - -
29/11:10am 13.8 10.7 7.3 65 3.2 W 13 17 7 9 1030.9 - -
29/11:00am 13.7 10.6 7.2 65 3.2 W 13 17 7 9 1031.1 - -
29/10:50am 13.6 10.5 7.2 65 3.1 W 13 17 7 9 1031.2 - -
29/10:40am 13.7 10.7 7.6 66 3.0 W 13 17 7 9 1031.4 - -
29/10:30am 13.6 10.6 7.6 67 3.0 W 13 17 7 9 1031.6 - -
29/10:20am 13.6 10.6 7.5 66 3.0 W 13 17 7 9 1031.8 - -
29/10:10am 13.6 10.6 7.5 66 3.0 W 13 17 7 9 1032.0 - -
29/10:00am 13.7 10.7 7.5 66 3.0 W 13 17 7 9 1032.2 - -
29/09:50am 13.6 10.5 7.4 66 3.0 W 13 19 7 10 1032.2 - -
29/09:40am 13.4 9.9 7.2 66 3.0 W 15 17 8 9 1032.4 - -
29/09:30am 13.4 9.9 7.2 66 3.0 W 15 19 8 10 1032.4 - -
29/09:20am 13.7 9.9 7.4 65 3.1 W 17 20 9 11 1032.6 - -
29/09:10am 13.7 9.8 7.3 65 3.1 WNW 17 20 9 11 1032.6 - -

Other Formats:

Comma delimited format used in spreadsheet applications
http://www.bom.gov.au/fwo/IDV60801/IDV60801.55039.axf

JavaScript Object Notation format (JSON) in row-major order
http://www.bom.gov.au/fwo/IDV60801/IDV60801.55039.json